createdAt,value
2018-03-31T00:00:51.473Z,4.73
2018-03-31T00:01:51.459Z,4.75
2018-03-31T00:02:51.447Z,4.85
2018-03-31T00:03:51.427Z,4.84
2018-03-31T00:04:51.417Z,4.85
2018-03-31T00:05:51.405Z,4.91
2018-03-31T00:06:51.389Z,4.89
2018-03-31T00:07:51.375Z,4.75
2018-03-31T00:08:51.358Z,4.89
2018-03-31T00:09:51.342Z,4.86
2018-03-31T00:10:51.329Z,4.91
2018-03-31T00:11:51.314Z,4.88
2018-03-31T00:12:51.304Z,4.92
2018-03-31T00:13:51.288Z,4.92
2018-03-31T00:14:51.272Z,4.99
2018-03-31T00:15:51.269Z,5.00
2018-03-31T00:16:51.251Z,4.94
2018-03-31T00:17:51.239Z,5.00
2018-03-31T00:18:51.223Z,5.02
2018-03-31T00:19:51.206Z,5.03
2018-03-31T00:20:51.192Z,5.00
2018-03-31T00:21:51.174Z,5.00
2018-03-31T00:22:51.164Z,4.92
2018-03-31T00:23:51.147Z,4.88
2018-03-31T00:24:51.137Z,4.88
2018-03-31T00:25:51.120Z,4.69
2018-03-31T00:26:51.105Z,4.78
2018-03-31T00:27:51.094Z,4.70
2018-03-31T00:28:51.083Z,4.58
2018-03-31T00:29:51.065Z,4.55
2018-03-31T00:30:51.049Z,4.50
2018-03-31T00:31:51.038Z,4.42
2018-03-31T00:32:51.021Z,4.47
2018-03-31T00:33:51.003Z,4.44
2018-03-31T00:34:50.992Z,4.44
2018-03-31T00:35:50.976Z,4.47
2018-03-31T00:36:50.964Z,4.47
2018-03-31T00:37:50.946Z,4.50
2018-03-31T00:38:50.938Z,4.37
2018-03-31T00:39:50.923Z,4.30
2018-03-31T00:40:50.909Z,4.33
2018-03-31T00:41:50.893Z,4.12
2018-03-31T00:42:50.877Z,4.14
2018-03-31T00:43:50.869Z,4.08
2018-03-31T00:44:50.855Z,4.05
2018-03-31T00:45:50.842Z,3.97
2018-03-31T00:46:50.819Z,3.93
2018-03-31T00:47:50.808Z,3.75
2018-03-31T00:48:50.792Z,3.83
2018-03-31T00:49:50.780Z,3.75
2018-03-31T00:50:50.766Z,3.76
2018-03-31T00:51:50.753Z,3.62
2018-03-31T00:52:50.737Z,3.60
2018-03-31T00:53:50.725Z,3.66
2018-03-31T00:54:50.709Z,3.55
2018-03-31T00:55:50.690Z,3.61
2018-03-31T00:56:50.685Z,3.69
2018-03-31T00:57:50.664Z,3.76
2018-03-31T00:58:50.650Z,3.87
2018-03-31T00:59:50.636Z,3.97
2018-03-31T01:00:50.624Z,3.88
2018-03-31T01:01:50.606Z,3.93
2018-03-31T01:02:50.590Z,3.80
2018-03-31T01:03:50.577Z,3.84
2018-03-31T01:04:50.563Z,3.84
2018-03-31T01:05:50.545Z,3.79
2018-03-31T01:06:50.543Z,3.83
2018-03-31T01:07:50.519Z,3.86
2018-03-31T01:08:50.511Z,3.93
2018-03-31T01:09:50.491Z,3.83
2018-03-31T01:10:50.507Z,3.96
2018-03-31T01:11:50.462Z,4.05
2018-03-31T01:12:50.446Z,4.09
2018-03-31T01:13:50.434Z,4.04
2018-03-31T01:14:50.417Z,4.11
2018-03-31T01:15:50.404Z,4.12
2018-03-31T01:16:50.389Z,4.15
2018-03-31T01:17:50.377Z,4.20
2018-03-31T01:18:50.365Z,4.23
2018-03-31T01:19:50.341Z,4.22
2018-03-31T01:20:50.331Z,4.12
2018-03-31T01:21:50.316Z,4.22
2018-03-31T01:22:50.303Z,4.16
2018-03-31T01:23:50.290Z,4.06
2018-03-31T01:24:50.271Z,4.06
2018-03-31T01:25:50.254Z,3.98
2018-03-31T01:26:50.250Z,4.00
2018-03-31T01:27:50.232Z,4.05
2018-03-31T01:28:50.216Z,4.09
2018-03-31T01:29:50.199Z,3.97
2018-03-31T01:30:50.188Z,3.96
2018-03-31T01:31:50.169Z,4.06
2018-03-31T01:32:50.155Z,3.97
2018-03-31T01:33:50.143Z,3.97
2018-03-31T01:34:50.124Z,4.06
2018-03-31T01:35:50.112Z,4.05
2018-03-31T01:36:50.098Z,4.02
2018-03-31T01:37:50.084Z,4.02
2018-03-31T01:38:50.067Z,4.00
2018-03-31T01:39:50.059Z,4.14
2018-03-31T01:40:50.042Z,3.98
2018-03-31T01:41:50.024Z,4.06
2018-03-31T01:42:50.010Z,4.09
2018-03-31T01:43:49.995Z,4.06
2018-03-31T01:44:49.982Z,4.06
2018-03-31T01:45:49.971Z,4.04
2018-03-31T01:46:49.953Z,4.11
2018-03-31T01:47:49.939Z,4.08
2018-03-31T01:48:49.921Z,4.16
2018-03-31T01:49:49.909Z,4.15
2018-03-31T01:50:49.892Z,4.16
2018-03-31T01:51:49.882Z,4.24
2018-03-31T01:52:49.862Z,4.12
2018-03-31T01:53:49.850Z,4.02
2018-03-31T01:54:49.844Z,3.98
2018-03-31T01:55:49.820Z,3.96
2018-03-31T01:56:49.806Z,4.00
2018-03-31T01:57:49.792Z,3.94
2018-03-31T01:58:49.781Z,4.00
2018-03-31T01:59:49.768Z,4.05
2018-03-31T02:00:49.751Z,4.05
2018-03-31T02:01:49.738Z,4.06
2018-03-31T02:02:49.722Z,4.02
2018-03-31T02:03:49.703Z,4.09
2018-03-31T02:04:49.690Z,4.02
2018-03-31T02:05:49.675Z,4.00
2018-03-31T02:06:49.671Z,3.94
2018-03-31T02:07:49.646Z,3.93
2018-03-31T02:08:49.632Z,3.90
2018-03-31T02:09:49.620Z,3.91
2018-03-31T02:10:49.598Z,3.84
2018-03-31T02:11:49.588Z,3.84
2018-03-31T02:12:49.574Z,3.70
2018-03-31T02:13:49.565Z,3.58
2018-03-31T02:14:49.544Z,3.72
2018-03-31T02:15:49.531Z,3.70
2018-03-31T02:16:49.522Z,3.62
2018-03-31T02:17:49.501Z,3.61
2018-03-31T02:18:49.487Z,3.60
2018-03-31T02:19:49.471Z,3.51
2018-03-31T02:20:49.456Z,3.52
2018-03-31T02:21:49.444Z,3.73
2018-03-31T02:22:49.431Z,3.72
2018-03-31T02:23:49.413Z,3.83
2018-03-31T02:24:49.458Z,3.84
2018-03-31T02:25:49.387Z,3.78
2018-03-31T02:26:49.371Z,3.80
2018-03-31T02:27:49.357Z,3.76
2018-03-31T02:28:49.341Z,3.75
2018-03-31T02:29:49.329Z,3.61
2018-03-31T02:30:49.312Z,3.68
2018-03-31T02:31:49.301Z,3.76
2018-03-31T02:32:49.280Z,3.73
2018-03-31T02:33:49.278Z,3.78
2018-03-31T02:34:49.257Z,3.75
2018-03-31T02:35:49.238Z,3.80
2018-03-31T02:36:49.227Z,3.86
2018-03-31T02:37:49.212Z,3.79
2018-03-31T02:38:49.199Z,3.78
2018-03-31T02:39:49.183Z,3.87
2018-03-31T02:40:49.171Z,3.83
2018-03-31T02:41:49.151Z,3.91
2018-03-31T02:42:49.138Z,3.97
2018-03-31T02:43:49.119Z,3.83
2018-03-31T02:44:49.105Z,3.97
2018-03-31T02:45:49.096Z,3.96
2018-03-31T02:46:49.078Z,3.94
2018-03-31T02:47:49.066Z,4.00
2018-03-31T02:48:49.055Z,3.87
2018-03-31T02:49:49.040Z,3.80
2018-03-31T02:50:49.018Z,3.86
2018-03-31T02:51:49.009Z,3.93
2018-03-31T02:52:48.988Z,3.93
2018-03-31T02:53:48.977Z,3.90
2018-03-31T02:54:48.961Z,3.88
2018-03-31T02:55:48.949Z,3.94
2018-03-31T02:56:48.933Z,3.87
2018-03-31T02:57:48.915Z,4.00
2018-03-31T02:58:48.902Z,3.97
2018-03-31T02:59:48.892Z,3.96
2018-03-31T03:00:48.878Z,3.94
2018-03-31T03:01:48.858Z,3.96
2018-03-31T03:02:48.846Z,3.97
2018-03-31T03:03:48.826Z,3.93
2018-03-31T03:04:48.821Z,3.93
2018-03-31T03:05:48.799Z,3.97
2018-03-31T03:06:48.785Z,3.96
2018-03-31T03:07:48.773Z,3.90
2018-03-31T03:08:48.754Z,3.97
2018-03-31T03:09:48.741Z,3.80
2018-03-31T03:10:48.733Z,3.84
2018-03-31T03:11:48.712Z,3.93
2018-03-31T03:12:48.699Z,3.87
2018-03-31T03:13:48.684Z,3.78
2018-03-31T03:14:48.673Z,3.93
2018-03-31T03:15:48.652Z,3.84
2018-03-31T03:16:48.641Z,3.84
2018-03-31T03:17:48.620Z,3.83
2018-03-31T03:18:48.611Z,3.83
2018-03-31T03:19:48.602Z,3.79
2018-03-31T03:20:48.582Z,3.66
2018-03-31T03:21:48.564Z,3.52
2018-03-31T03:22:48.552Z,3.54
2018-03-31T03:23:48.538Z,3.55
2018-03-31T03:24:48.527Z,3.60
2018-03-31T03:25:48.510Z,3.52
2018-03-31T03:26:48.494Z,3.65
2018-03-31T03:27:48.475Z,3.61
2018-03-31T03:28:48.465Z,3.73
2018-03-31T03:29:48.445Z,3.73
2018-03-31T03:30:48.436Z,3.75
2018-03-31T03:31:48.419Z,3.76
2018-03-31T03:32:48.406Z,3.79
2018-03-31T03:33:48.388Z,3.84
2018-03-31T03:34:48.373Z,3.83
2018-03-31T03:35:48.359Z,3.84
2018-03-31T03:36:48.344Z,3.80
2018-03-31T03:37:48.331Z,3.83
2018-03-31T03:38:48.316Z,3.86
2018-03-31T03:39:48.312Z,3.73
2018-03-31T03:40:48.292Z,3.75
2018-03-31T03:41:48.268Z,3.69
2018-03-31T03:42:48.257Z,3.75
2018-03-31T03:43:48.244Z,3.72
2018-03-31T03:44:48.230Z,3.83
2018-03-31T03:45:48.212Z,3.80
2018-03-31T03:46:48.196Z,3.79
2018-03-31T03:47:48.187Z,3.86
2018-03-31T03:48:48.171Z,3.78
2018-03-31T03:49:48.155Z,3.84
2018-03-31T03:50:48.139Z,3.83
2018-03-31T03:51:48.124Z,3.73
2018-03-31T03:52:48.114Z,3.72
2018-03-31T03:53:48.094Z,3.58
2018-03-31T03:54:48.084Z,3.61
2018-03-31T03:55:48.067Z,3.60
2018-03-31T03:56:48.056Z,3.60
2018-03-31T03:57:48.037Z,3.45
2018-03-31T03:58:48.020Z,3.48
2018-03-31T03:59:48.010Z,3.50
2018-03-31T04:00:47.990Z,3.40
2018-03-31T04:01:47.978Z,3.45
2018-03-31T04:02:47.965Z,3.43
2018-03-31T04:03:47.946Z,3.47
2018-03-31T04:04:47.930Z,3.42
2018-03-31T04:05:47.927Z,3.42
2018-03-31T04:06:47.905Z,3.45
2018-03-31T04:07:47.884Z,3.43
2018-03-31T04:08:47.877Z,3.28
2018-03-31T04:09:47.854Z,3.17
2018-03-31T04:10:47.844Z,3.18
2018-03-31T04:11:47.828Z,3.17
2018-03-31T04:12:47.808Z,3.17
2018-03-31T04:13:47.800Z,3.23
2018-03-31T04:14:47.787Z,3.26
2018-03-31T04:15:47.774Z,3.21
2018-03-31T04:16:47.752Z,3.26
2018-03-31T04:17:47.740Z,3.23
2018-03-31T04:18:47.722Z,3.28
2018-03-31T04:19:47.708Z,3.28
2018-03-31T04:20:47.698Z,3.36
2018-03-31T04:21:47.685Z,3.28
2018-03-31T04:22:47.667Z,3.29
2018-03-31T04:23:47.652Z,3.35
2018-03-31T04:24:47.640Z,3.36
2018-03-31T04:25:47.625Z,3.42
2018-03-31T04:26:47.618Z,3.43
2018-03-31T04:27:47.595Z,3.47
2018-03-31T04:28:47.575Z,3.57
2018-03-31T04:29:47.577Z,3.54
2018-03-31T04:30:47.547Z,3.55
2018-03-31T04:31:47.530Z,3.57
2018-03-31T04:32:47.514Z,3.62
2018-03-31T04:33:47.502Z,3.60
2018-03-31T04:34:47.486Z,3.65
2018-03-31T04:35:47.477Z,3.61
2018-03-31T04:36:47.459Z,3.72
2018-03-31T04:37:47.444Z,3.65
2018-03-31T04:38:47.434Z,3.61
2018-03-31T04:39:47.414Z,3.58
2018-03-31T04:40:47.402Z,3.76
2018-03-31T04:41:47.381Z,3.73
2018-03-31T04:42:47.368Z,3.75
2018-03-31T04:43:47.356Z,3.79
2018-03-31T04:44:47.341Z,3.72
2018-03-31T04:45:47.325Z,3.78
2018-03-31T04:46:47.308Z,3.79
2018-03-31T04:47:47.294Z,3.75
2018-03-31T04:48:47.279Z,3.62
2018-03-31T04:49:47.264Z,3.62
2018-03-31T04:50:47.252Z,3.60
2018-03-31T04:51:47.233Z,3.51
2018-03-31T04:52:47.219Z,3.48
2018-03-31T04:53:47.210Z,3.43
2018-03-31T04:54:47.195Z,3.35
2018-03-31T04:55:47.177Z,3.36
2018-03-31T04:56:47.158Z,3.33
2018-03-31T04:57:47.145Z,3.29
2018-03-31T04:58:47.130Z,3.36
2018-03-31T04:59:47.121Z,3.40
2018-03-31T05:00:47.101Z,3.43
2018-03-31T05:01:47.085Z,3.40
2018-03-31T05:02:47.074Z,3.42
2018-03-31T05:03:47.063Z,3.48
2018-03-31T05:04:47.047Z,3.42
2018-03-31T05:05:47.028Z,3.43
2018-03-31T05:06:47.012Z,3.54
2018-03-31T05:07:47.001Z,3.47
2018-03-31T05:08:46.994Z,3.40
2018-03-31T05:09:46.971Z,3.43
2018-03-31T05:10:46.956Z,3.48
2018-03-31T05:11:46.940Z,3.45
2018-03-31T05:12:46.920Z,3.43
2018-03-31T05:13:46.908Z,3.47
2018-03-31T05:14:46.898Z,3.42
2018-03-31T05:15:46.878Z,3.31
2018-03-31T05:16:46.866Z,3.33
2018-03-31T05:17:46.848Z,3.28
2018-03-31T05:18:46.837Z,3.31
2018-03-31T05:19:46.819Z,3.32
2018-03-31T05:20:46.803Z,3.29
2018-03-31T05:21:46.792Z,3.35
2018-03-31T05:22:46.783Z,3.29
2018-03-31T05:23:46.762Z,3.43
2018-03-31T05:24:46.740Z,3.47
2018-03-31T05:25:46.731Z,3.42
2018-03-31T05:26:46.717Z,3.51
2018-03-31T05:27:46.706Z,3.58
2018-03-31T05:28:46.688Z,3.58
2018-03-31T05:29:46.676Z,3.60
2018-03-31T05:30:46.654Z,3.57
2018-03-31T05:31:46.649Z,3.55
2018-03-31T05:32:46.628Z,3.52
2018-03-31T05:33:46.614Z,3.43
2018-03-31T05:34:46.598Z,3.50
2018-03-31T05:35:46.588Z,3.60
2018-03-31T05:36:46.566Z,3.60
2018-03-31T05:37:46.545Z,3.45
2018-03-31T05:38:46.542Z,3.35
2018-03-31T05:39:46.521Z,3.20
2018-03-31T05:40:46.507Z,3.28
2018-03-31T05:41:46.493Z,3.14
2018-03-31T05:42:46.476Z,3.05
2018-03-31T05:43:46.464Z,3.13
2018-03-31T05:44:46.448Z,3.10
2018-03-31T05:45:46.435Z,3.13
2018-03-31T05:46:46.415Z,3.20
2018-03-31T05:47:46.401Z,3.24
2018-03-31T05:48:46.386Z,3.24
2018-03-31T05:49:46.374Z,3.29
2018-03-31T05:50:46.360Z,3.31
2018-03-31T05:51:46.343Z,3.35
2018-03-31T05:52:46.328Z,3.50
2018-03-31T05:53:46.314Z,3.47
2018-03-31T05:54:46.304Z,3.45
2018-03-31T05:55:46.285Z,3.61
2018-03-31T05:56:46.277Z,3.62
2018-03-31T05:57:46.260Z,3.62
2018-03-31T05:58:46.256Z,3.61
2018-03-31T05:59:46.226Z,3.72
2018-03-31T06:00:46.212Z,3.76
2018-03-31T06:01:46.192Z,3.75
2018-03-31T06:02:46.184Z,3.84
2018-03-31T06:03:46.163Z,3.79
2018-03-31T06:04:46.152Z,3.79
2018-03-31T06:05:46.138Z,3.87
2018-03-31T06:06:46.124Z,3.93
2018-03-31T06:07:46.104Z,3.93
2018-03-31T06:08:46.089Z,4.00
2018-03-31T06:09:46.075Z,3.94
2018-03-31T06:10:46.071Z,4.05
2018-03-31T06:11:46.056Z,4.06
2018-03-31T06:12:46.032Z,4.02
2018-03-31T06:13:46.016Z,4.11
2018-03-31T06:14:46.002Z,4.09
2018-03-31T06:15:45.988Z,4.11
2018-03-31T06:16:45.977Z,4.11
2018-03-31T06:17:45.965Z,4.05
2018-03-31T06:18:45.942Z,4.15
2018-03-31T06:19:45.928Z,4.15
2018-03-31T06:20:45.924Z,4.20
2018-03-31T06:21:45.896Z,4.12
2018-03-31T06:22:45.890Z,4.11
2018-03-31T06:23:45.873Z,4.32
2018-03-31T06:24:45.854Z,4.36
2018-03-31T06:25:45.849Z,4.42
2018-03-31T06:26:45.826Z,4.45
2018-03-31T06:27:45.812Z,4.63
2018-03-31T06:28:45.802Z,4.77
2018-03-31T06:29:45.788Z,4.89
2018-03-31T06:30:45.779Z,4.99
2018-03-31T06:31:45.753Z,5.13
2018-03-31T06:32:45.739Z,5.21
2018-03-31T06:33:45.731Z,5.31
2018-03-31T06:34:45.711Z,5.36
2018-03-31T06:35:45.699Z,5.36
2018-03-31T06:36:45.683Z,5.45
2018-03-31T06:37:45.669Z,5.49
2018-03-31T06:38:45.654Z,5.54
2018-03-31T06:39:45.641Z,5.64
2018-03-31T06:40:45.628Z,5.63
2018-03-31T06:41:45.613Z,5.74
2018-03-31T06:42:45.600Z,5.86
2018-03-31T06:43:45.590Z,5.93
2018-03-31T06:44:45.567Z,5.91
2018-03-31T06:45:45.563Z,5.91
2018-03-31T06:46:45.601Z,6.00
2018-03-31T06:47:45.525Z,6.17
2018-03-31T06:48:45.511Z,6.01
2018-03-31T06:49:45.504Z,6.08
2018-03-31T06:50:45.487Z,6.08
2018-03-31T06:51:45.469Z,6.11
2018-03-31T06:52:45.501Z,6.04
2018-03-31T06:53:45.442Z,5.97
2018-03-31T06:54:45.433Z,6.00
2018-03-31T06:55:45.419Z,5.79
2018-03-31T06:56:45.401Z,5.89
2018-03-31T06:57:45.389Z,5.83
2018-03-31T06:58:45.371Z,5.75
2018-03-31T06:59:45.359Z,5.68
2018-03-31T07:00:45.349Z,5.65
2018-03-31T07:01:45.331Z,5.71
2018-03-31T07:02:45.319Z,5.54
2018-03-31T07:03:45.308Z,5.65
2018-03-31T07:04:45.292Z,5.67
2018-03-31T07:05:45.276Z,5.65
2018-03-31T07:06:45.262Z,5.71
2018-03-31T07:07:45.250Z,7.50
2018-03-31T07:08:45.232Z,8.96
2018-03-31T07:09:45.220Z,10.30
2018-03-31T07:10:45.210Z,10.32
2018-03-31T07:11:45.209Z,9.93
2018-03-31T07:12:45.179Z,9.54
2018-03-31T07:13:45.169Z,8.95
2018-03-31T07:14:45.153Z,8.62
2018-03-31T07:15:45.147Z,8.12
2018-03-31T07:16:45.125Z,7.69
2018-03-31T07:17:45.115Z,7.34
2018-03-31T07:18:45.099Z,7.15
2018-03-31T07:19:45.089Z,6.91
2018-03-31T07:20:45.070Z,6.66
2018-03-31T07:21:45.068Z,6.52
2018-03-31T07:22:45.044Z,6.43
2018-03-31T07:23:45.035Z,6.21
2018-03-31T07:24:45.017Z,6.01
2018-03-31T07:25:45.002Z,5.94
2018-03-31T07:26:44.990Z,6.06
2018-03-31T07:27:44.975Z,5.99
2018-03-31T07:28:44.967Z,5.90
2018-03-31T07:29:44.949Z,5.90
2018-03-31T07:30:44.941Z,5.82
2018-03-31T07:31:44.925Z,5.85
2018-03-31T07:32:44.915Z,5.91
2018-03-31T07:33:44.897Z,5.81
2018-03-31T07:34:44.888Z,5.91
2018-03-31T07:35:44.872Z,5.91
2018-03-31T07:36:44.856Z,5.94
2018-03-31T07:37:44.843Z,5.97
2018-03-31T07:38:44.828Z,6.04
2018-03-31T07:39:44.811Z,6.04
2018-03-31T07:40:44.819Z,6.06
2018-03-31T07:41:44.787Z,6.21
2018-03-31T07:42:44.769Z,6.17
2018-03-31T07:43:44.756Z,6.28
2018-03-31T07:44:44.742Z,6.34
2018-03-31T07:45:44.731Z,6.44
2018-03-31T07:46:44.720Z,6.36
2018-03-31T07:47:44.704Z,6.41
2018-03-31T07:48:44.689Z,6.44
2018-03-31T07:49:44.675Z,6.44
2018-03-31T07:50:44.665Z,6.37
2018-03-31T07:51:44.652Z,6.38
2018-03-31T07:52:44.632Z,6.38
2018-03-31T07:53:44.620Z,6.37
2018-03-31T07:54:44.610Z,6.37
2018-03-31T07:55:44.596Z,6.37
2018-03-31T07:56:44.580Z,6.31
2018-03-31T07:57:44.570Z,6.30
2018-03-31T07:58:44.556Z,6.37
2018-03-31T07:59:44.547Z,6.37
2018-03-31T08:00:44.529Z,6.44
2018-03-31T08:01:44.513Z,6.52
2018-03-31T08:02:44.503Z,6.49
2018-03-31T08:03:44.489Z,6.51
2018-03-31T08:04:44.475Z,6.62
2018-03-31T08:05:44.461Z,6.69
2018-03-31T08:06:44.449Z,6.62
2018-03-31T08:07:44.441Z,6.71
2018-03-31T08:08:44.420Z,6.70
2018-03-31T08:09:44.409Z,6.58
2018-03-31T08:10:44.396Z,6.46
2018-03-31T08:11:44.383Z,6.34
2018-03-31T08:12:44.362Z,6.21
2018-03-31T08:13:44.352Z,6.08
2018-03-31T08:14:44.338Z,5.97
2018-03-31T08:15:44.328Z,6.00
2018-03-31T08:16:44.383Z,6.03
2018-03-31T08:17:44.358Z,5.90
2018-03-31T08:18:44.287Z,5.97
2018-03-31T08:19:44.277Z,5.94
2018-03-31T08:20:44.266Z,5.96
2018-03-31T08:21:44.245Z,6.04
2018-03-31T08:22:44.235Z,6.08
2018-03-31T08:23:44.217Z,6.15
2018-03-31T08:24:44.207Z,6.22
2018-03-31T08:25:44.196Z,6.41
2018-03-31T08:26:44.184Z,6.46
2018-03-31T08:27:44.168Z,6.49
2018-03-31T08:28:44.152Z,6.69
2018-03-31T08:29:44.134Z,6.70
2018-03-31T08:30:44.126Z,6.91
2018-03-31T08:31:44.117Z,6.99
2018-03-31T08:32:44.099Z,7.20
2018-03-31T08:33:44.087Z,7.28
2018-03-31T08:34:44.073Z,7.37
2018-03-31T08:35:44.061Z,7.32
2018-03-31T08:36:44.047Z,7.49
2018-03-31T08:37:44.031Z,7.53
2018-03-31T08:38:44.025Z,7.49
2018-03-31T08:39:44.009Z,7.52
2018-03-31T08:40:43.995Z,7.52
2018-03-31T08:41:44.001Z,7.57
2018-03-31T08:42:43.971Z,7.55
2018-03-31T08:43:43.959Z,7.39
2018-03-31T08:44:43.951Z,7.16
2018-03-31T08:45:43.931Z,7.02
2018-03-31T08:46:43.918Z,6.95
2018-03-31T08:47:43.897Z,6.94
2018-03-31T08:48:43.889Z,6.98
2018-03-31T08:49:43.875Z,7.03
2018-03-31T08:50:43.865Z,6.81
2018-03-31T08:51:43.853Z,6.98
2018-03-31T08:52:43.834Z,6.98
2018-03-31T08:53:43.824Z,7.02
2018-03-31T08:54:43.812Z,6.98
2018-03-31T08:55:43.803Z,6.98
2018-03-31T08:56:43.790Z,7.05
2018-03-31T08:57:43.775Z,6.95
2018-03-31T08:58:43.759Z,7.06
2018-03-31T08:59:43.745Z,7.16
2018-03-31T09:00:43.735Z,7.20
2018-03-31T09:01:43.721Z,7.21
2018-03-31T09:02:43.711Z,7.25
2018-03-31T09:03:43.782Z,7.24
2018-03-31T09:04:43.680Z,7.35
2018-03-31T09:05:43.668Z,7.45
2018-03-31T09:06:43.659Z,7.55
2018-03-31T09:07:43.640Z,7.68
2018-03-31T09:08:43.628Z,7.68
2018-03-31T09:09:43.618Z,7.75
2018-03-31T09:10:43.604Z,7.67
2018-03-31T09:11:43.598Z,7.60
2018-03-31T09:12:43.585Z,7.69
2018-03-31T09:13:43.563Z,7.57
2018-03-31T09:14:43.556Z,7.49
2018-03-31T09:15:43.541Z,7.42
2018-03-31T09:16:43.593Z,7.49
2018-03-31T09:17:43.517Z,7.35
2018-03-31T09:18:43.505Z,7.34
2018-03-31T09:19:43.493Z,7.30
2018-03-31T09:20:43.478Z,7.28
2018-03-31T09:21:43.466Z,7.37
2018-03-31T09:22:45.782Z,7.37
2018-03-31T09:23:43.443Z,7.30
2018-03-31T09:24:44.450Z,7.49
2018-03-31T09:25:43.415Z,7.68
2018-03-31T09:26:43.404Z,7.80
2018-03-31T09:27:43.390Z,8.01
2018-03-31T09:28:43.377Z,8.02
2018-03-31T09:29:43.360Z,7.98
2018-03-31T09:30:43.343Z,7.98
2018-03-31T09:31:43.341Z,7.87
2018-03-31T09:32:43.328Z,7.95
2018-03-31T09:33:43.315Z,7.98
2018-03-31T09:34:43.297Z,8.01
2018-03-31T09:35:43.287Z,8.28
2018-03-31T09:36:43.275Z,8.48
2018-03-31T09:37:43.261Z,8.58
2018-03-31T09:38:43.249Z,8.47
2018-03-31T09:39:43.243Z,8.44
2018-03-31T09:40:43.225Z,8.50
2018-03-31T09:41:43.214Z,8.52
2018-03-31T09:42:43.197Z,8.55
2018-03-31T09:43:43.187Z,8.48
2018-03-31T09:44:43.170Z,8.47
2018-03-31T09:45:43.162Z,8.45
2018-03-31T09:46:43.240Z,8.34
2018-03-31T09:47:43.136Z,8.25
2018-03-31T09:48:43.121Z,8.25
2018-03-31T09:49:43.111Z,8.33
2018-03-31T09:50:43.101Z,8.38
2018-03-31T09:51:43.090Z,8.38
2018-03-31T09:52:43.081Z,8.40
2018-03-31T09:53:43.061Z,8.26
2018-03-31T09:54:43.051Z,8.30
2018-03-31T09:55:43.042Z,8.29
2018-03-31T09:56:43.028Z,8.37
2018-03-31T09:57:43.016Z,8.47
2018-03-31T09:58:43.006Z,8.41
2018-03-31T09:59:42.989Z,8.41
2018-03-31T10:00:42.978Z,8.43
2018-03-31T10:01:42.967Z,8.41
2018-03-31T10:02:42.953Z,8.45
2018-03-31T10:03:42.939Z,8.40
2018-03-31T10:04:42.929Z,8.44
2018-03-31T10:05:42.914Z,8.48
2018-03-31T10:06:42.905Z,8.53
2018-03-31T10:07:42.893Z,8.53
2018-03-31T10:08:42.877Z,8.38
2018-03-31T10:09:42.862Z,8.44
2018-03-31T10:10:42.854Z,8.38
2018-03-31T10:11:42.845Z,8.36
2018-03-31T10:12:42.833Z,8.43
2018-03-31T10:13:42.816Z,8.41
2018-03-31T10:14:42.805Z,8.48
2018-03-31T10:15:42.795Z,8.53
2018-03-31T10:16:42.780Z,8.50
2018-03-31T10:17:42.765Z,8.59
2018-03-31T10:18:42.755Z,8.65
2018-03-31T10:19:42.743Z,8.84
2018-03-31T10:20:42.730Z,9.02
2018-03-31T10:21:42.717Z,9.13
2018-03-31T10:22:42.711Z,9.26
2018-03-31T10:23:42.704Z,9.32
2018-03-31T10:24:42.683Z,9.32
2018-03-31T10:25:42.682Z,9.26
2018-03-31T10:26:42.656Z,9.18
2018-03-31T10:27:42.649Z,9.10
2018-03-31T10:28:42.635Z,8.98
2018-03-31T10:29:42.627Z,8.92
2018-03-31T10:30:42.612Z,8.91
2018-03-31T10:31:42.600Z,8.92
2018-03-31T10:32:42.586Z,8.80
2018-03-31T10:33:42.572Z,8.71
2018-03-31T10:34:42.571Z,8.61
2018-03-31T10:35:42.553Z,8.61
2018-03-31T10:36:42.537Z,8.59
2018-03-31T10:37:42.523Z,8.59
2018-03-31T10:38:42.514Z,8.62
2018-03-31T10:39:42.501Z,8.62
2018-03-31T10:40:42.493Z,8.63
2018-03-31T10:41:42.485Z,8.71
2018-03-31T10:42:42.516Z,8.76
2018-03-31T10:43:42.458Z,8.79
2018-03-31T10:44:42.443Z,8.71
2018-03-31T10:45:42.431Z,8.83
2018-03-31T10:46:42.430Z,8.81
2018-03-31T10:47:42.406Z,8.94
2018-03-31T10:48:42.394Z,8.98
2018-03-31T10:49:42.384Z,9.18
2018-03-31T10:50:42.371Z,9.40
2018-03-31T10:51:42.356Z,9.56
2018-03-31T10:52:42.348Z,9.51
2018-03-31T10:53:42.334Z,9.56
2018-03-31T10:54:42.327Z,9.53
2018-03-31T10:55:42.314Z,9.36
2018-03-31T10:56:42.301Z,9.38
2018-03-31T10:57:42.289Z,9.28
2018-03-31T10:58:42.275Z,9.14
2018-03-31T10:59:42.264Z,9.05
2018-03-31T11:00:42.256Z,8.99
2018-03-31T11:01:42.246Z,9.08
2018-03-31T11:02:42.233Z,9.15
2018-03-31T11:03:42.223Z,9.15
2018-03-31T11:04:42.208Z,9.31
2018-03-31T11:05:42.198Z,9.23
2018-03-31T11:06:42.202Z,9.29
2018-03-31T11:07:42.172Z,9.26
2018-03-31T11:08:42.160Z,9.40
2018-03-31T11:09:42.146Z,9.40
2018-03-31T11:10:42.134Z,9.46
2018-03-31T11:11:42.145Z,9.56
2018-03-31T11:12:42.111Z,9.61
2018-03-31T11:13:42.094Z,9.64
2018-03-31T11:14:42.088Z,9.60
2018-03-31T11:15:42.074Z,9.54
2018-03-31T11:16:42.065Z,9.56
2018-03-31T11:17:42.051Z,9.42
2018-03-31T11:18:42.043Z,9.20
2018-03-31T11:19:42.026Z,9.01
2018-03-31T11:20:42.022Z,8.70
2018-03-31T11:21:42.009Z,8.53
2018-03-31T11:22:42.000Z,8.38
2018-03-31T11:23:41.989Z,8.45
2018-03-31T11:24:41.971Z,8.36
2018-03-31T11:25:41.969Z,8.41
2018-03-31T11:26:41.958Z,8.29
2018-03-31T11:27:41.937Z,8.25
2018-03-31T11:28:41.922Z,8.28
2018-03-31T11:29:41.914Z,8.20
2018-03-31T11:30:41.896Z,8.34
2018-03-31T11:31:41.890Z,8.38
2018-03-31T11:32:41.881Z,8.50
2018-03-31T11:33:41.863Z,8.63
2018-03-31T11:34:41.855Z,8.89
2018-03-31T11:35:41.847Z,9.11
2018-03-31T11:36:41.830Z,9.13
2018-03-31T11:37:41.815Z,9.18
2018-03-31T11:38:41.808Z,9.36
2018-03-31T11:39:41.791Z,9.36
2018-03-31T11:40:41.781Z,9.15
2018-03-31T11:41:41.772Z,9.08
2018-03-31T11:42:41.760Z,9.05
2018-03-31T11:43:41.750Z,9.05
2018-03-31T11:44:41.732Z,8.98
2018-03-31T11:45:41.728Z,8.92
2018-03-31T11:46:41.715Z,8.84
2018-03-31T11:47:41.699Z,8.86
2018-03-31T11:48:41.690Z,8.73
2018-03-31T11:49:41.673Z,8.76
2018-03-31T11:50:41.666Z,8.68
2018-03-31T11:51:41.654Z,8.73
2018-03-31T11:52:41.638Z,8.70
2018-03-31T11:53:41.630Z,8.63
2018-03-31T11:54:41.618Z,8.59
2018-03-31T11:55:41.609Z,8.59
2018-03-31T11:56:41.598Z,8.59
2018-03-31T11:57:41.579Z,8.55
2018-03-31T11:58:41.569Z,8.56
2018-03-31T11:59:41.558Z,8.59
2018-03-31T12:00:41.542Z,8.73
2018-03-31T12:01:41.534Z,8.86
2018-03-31T12:02:41.522Z,8.61
2018-03-31T12:03:41.513Z,8.70
2018-03-31T12:04:41.505Z,8.58
2018-03-31T12:05:41.484Z,8.84
2018-03-31T12:06:41.476Z,8.86
2018-03-31T12:07:41.463Z,8.86
2018-03-31T12:08:41.450Z,8.94
2018-03-31T12:09:41.438Z,8.98
2018-03-31T12:10:41.431Z,9.02
2018-03-31T12:11:41.415Z,9.02
2018-03-31T12:12:41.408Z,8.84
2018-03-31T12:13:41.391Z,8.86
2018-03-31T12:14:41.386Z,8.89
2018-03-31T12:15:41.368Z,8.96
2018-03-31T12:16:41.358Z,9.04
2018-03-31T12:17:41.346Z,8.95
2018-03-31T12:18:41.334Z,8.98
2018-03-31T12:19:41.323Z,8.87
2018-03-31T12:20:41.316Z,8.73
2018-03-31T12:21:41.296Z,8.59
2018-03-31T12:22:41.288Z,8.45
2018-03-31T12:23:41.273Z,8.44
2018-03-31T12:24:41.263Z,8.34
2018-03-31T12:25:41.248Z,8.23
2018-03-31T12:26:41.239Z,8.20
2018-03-31T12:27:41.223Z,8.11
2018-03-31T12:28:41.213Z,8.04
2018-03-31T12:29:41.201Z,7.90
2018-03-31T12:30:41.191Z,7.83
2018-03-31T12:31:41.180Z,7.80
2018-03-31T12:32:41.163Z,7.77
2018-03-31T12:33:41.158Z,7.77
2018-03-31T12:34:41.146Z,7.80
2018-03-31T12:35:41.127Z,7.75
2018-03-31T12:36:41.167Z,7.72
2018-03-31T12:37:41.105Z,7.50
2018-03-31T12:38:41.105Z,7.61
2018-03-31T12:39:41.090Z,7.49
2018-03-31T12:40:41.088Z,7.64
2018-03-31T12:41:41.060Z,7.67
2018-03-31T12:42:41.045Z,7.67
2018-03-31T12:43:41.038Z,7.67
2018-03-31T12:44:41.025Z,7.69
2018-03-31T12:45:41.008Z,7.64
2018-03-31T12:46:40.998Z,7.49
2018-03-31T12:47:40.985Z,7.45
2018-03-31T12:48:40.968Z,7.50
2018-03-31T12:49:40.959Z,7.34
2018-03-31T12:50:40.947Z,7.40
2018-03-31T12:51:40.955Z,7.42
2018-03-31T12:52:40.915Z,7.40
2018-03-31T12:53:40.909Z,7.37
2018-03-31T12:54:40.897Z,7.34
2018-03-31T12:55:40.897Z,7.49
2018-03-31T12:56:40.865Z,7.35
2018-03-31T12:57:40.856Z,7.45
2018-03-31T12:58:40.847Z,7.43
2018-03-31T12:59:40.833Z,7.49
2018-03-31T13:00:40.820Z,7.46
2018-03-31T13:01:40.812Z,7.52
2018-03-31T13:02:40.790Z,7.32
2018-03-31T13:03:40.779Z,7.37
2018-03-31T13:04:40.775Z,7.39
2018-03-31T13:05:40.760Z,7.40
2018-03-31T13:06:40.743Z,7.43
2018-03-31T13:07:40.730Z,7.49
2018-03-31T13:08:40.722Z,7.46
2018-03-31T13:09:40.713Z,7.50
2018-03-31T13:10:40.692Z,7.32
2018-03-31T13:11:40.678Z,7.23
2018-03-31T13:12:40.669Z,7.20
2018-03-31T13:13:40.672Z,7.32
2018-03-31T13:14:40.643Z,7.24
2018-03-31T13:15:40.629Z,7.23
2018-03-31T13:16:40.628Z,7.32
2018-03-31T13:17:40.603Z,7.24
2018-03-31T13:18:40.589Z,7.23